sensor_id;sensor_type;location;lat;lon;timestamp;temperature;humidity
12481;DHT22;6305;48.398;11.762;2023-02-15T00:00:54;-0.80;99.90
12481;DHT22;6305;48.398;11.762;2023-02-15T00:03:22;-0.80;99.90
12481;DHT22;6305;48.398;11.762;2023-02-15T00:05:49;-0.90;99.90
12481;DHT22;6305;48.398;11.762;2023-02-15T00:08:16;-0.80;99.90
12481;DHT22;6305;48.398;11.762;2023-02-15T00:10:43;-0.90;99.90
12481;DHT22;6305;48.398;11.762;2023-02-15T00:13:10;-0.90;99.90
12481;DHT22;6305;48.398;11.762;2023-02-15T00:15:37;-0.90;99.90
12481;DHT22;6305;48.398;11.762;2023-02-15T00:18:03;-0.90;99.90
12481;DHT22;6305;48.398;11.762;2023-02-15T00:20:32;-0.90;99.90
12481;DHT22;6305;48.398;11.762;2023-02-15T00:22:59;-0.90;99.90
12481;DHT22;6305;48.398;11.762;2023-02-15T00:25:26;-0.90;99.90
12481;DHT22;6305;48.398;11.762;2023-02-15T00:27:53;-0.90;99.90
12481;DHT22;6305;48.398;11.762;2023-02-15T00:30:20;-0.80;99.90
12481;DHT22;6305;48.398;11.762;2023-02-15T00:32:47;-0.80;99.90
12481;DHT22;6305;48.398;11.762;2023-02-15T00:35:14;-0.80;99.90
12481;DHT22;6305;48.398;11.762;2023-02-15T00:37:42;-0.80;99.90
12481;DHT22;6305;48.398;11.762;2023-02-15T00:40:09;-0.80;99.90
12481;DHT22;6305;48.398;11.762;2023-02-15T00:42:36;-0.80;99.90
12481;DHT22;6305;48.398;11.762;2023-02-15T00:45:04;-0.80;99.90
12481;DHT22;6305;48.398;11.762;2023-02-15T00:47:31;-0.80;99.90
12481;DHT22;6305;48.398;11.762;2023-02-15T00:49:57;-0.80;99.90
12481;DHT22;6305;48.398;11.762;2023-02-15T00:52:24;-0.80;99.90
12481;DHT22;6305;48.398;11.762;2023-02-15T00:54:52;-0.90;99.90
12481;DHT22;6305;48.398;11.762;2023-02-15T00:57:19;-0.90;99.90
12481;DHT22;6305;48.398;11.762;2023-02-15T00:59:46;-0.90;99.90
12481;DHT22;6305;48.398;11.762;2023-02-15T01:02:13;-0.90;99.90
12481;DHT22;6305;48.398;11.762;2023-02-15T01:04:40;-1.00;99.90
12481;DHT22;6305;48.398;11.762;2023-02-15T01:07:07;-1.00;99.90
12481;DHT22;6305;48.398;11.762;2023-02-15T01:09:33;-1.00;99.90
12481;DHT22;6305;48.398;11.762;2023-02-15T01:12:03;-0.90;99.90
12481;DHT22;6305;48.398;11.762;2023-02-15T01:14:30;-0.90;99.90
12481;DHT22;6305;48.398;11.762;2023-02-15T01:16:57;-0.90;99.90
12481;DHT22;6305;48.398;11.762;2023-02-15T01:19:24;-1.00;99.90
12481;DHT22;6305;48.398;11.762;2023-02-15T01:21:52;-1.00;99.90
12481;DHT22;6305;48.398;11.762;2023-02-15T01:24:18;-1.00;99.90
12481;DHT22;6305;48.398;11.762;2023-02-15T01:26:45;-1.00;99.90
12481;DHT22;6305;48.398;11.762;2023-02-15T01:29:13;-1.00;99.90
12481;DHT22;6305;48.398;11.762;2023-02-15T01:31:40;-1.00;99.90
12481;DHT22;6305;48.398;11.762;2023-02-15T01:34:07;-1.00;99.90
12481;DHT22;6305;48.398;11.762;2023-02-15T01:36:34;-1.00;99.90
12481;DHT22;6305;48.398;11.762;2023-02-15T01:39:01;-1.00;99.90
12481;DHT22;6305;48.398;11.762;2023-02-15T01:41:30;-1.00;99.90
12481;DHT22;6305;48.398;11.762;2023-02-15T01:44:01;-1.00;99.90
12481;DHT22;6305;48.398;11.762;2023-02-15T01:46:34;-1.00;99.90
12481;DHT22;6305;48.398;11.762;2023-02-15T01:49:05;-1.00;99.90
12481;DHT22;6305;48.398;11.762;2023-02-15T01:51:36;-1.00;99.90
12481;DHT22;6305;48.398;11.762;2023-02-15T01:54:09;-1.00;99.90
12481;DHT22;6305;48.398;11.762;2023-02-15T01:56:38;-1.00;99.90
12481;DHT22;6305;48.398;11.762;2023-02-15T01:59:09;-1.10;99.90
12481;DHT22;6305;48.398;11.762;2023-02-15T02:01:40;-1.00;99.90
12481;DHT22;6305;48.398;11.762;2023-02-15T02:04:11;-1.10;99.90
12481;DHT22;6305;48.398;11.762;2023-02-15T02:06:40;-1.00;99.90
12481;DHT22;6305;48.398;11.762;2023-02-15T02:09:07;-1.10;99.90
12481;DHT22;6305;48.398;11.762;2023-02-15T02:11:35;-1.10;99.90
12481;DHT22;6305;48.398;11.762;2023-02-15T02:14:03;-1.10;99.90
12481;DHT22;6305;48.398;11.762;2023-02-15T02:16:35;-1.10;99.90
12481;DHT22;6305;48.398;11.762;2023-02-15T02:22:30;-1.00;99.90
12481;DHT22;6305;48.398;11.762;2023-02-15T02:28:14;-1.00;99.90
12481;DHT22;6305;48.398;11.762;2023-02-15T02:31:08;-1.00;99.90
12481;DHT22;6305;48.398;11.762;2023-02-15T02:33:50;-1.00;99.90
12481;DHT22;6305;48.398;11.762;2023-02-15T02:36:26;-1.00;99.90
12481;DHT22;6305;48.398;11.762;2023-02-15T02:39:06;-0.90;99.90
12481;DHT22;6305;48.398;11.762;2023-02-15T02:41:41;-0.90;99.90
12481;DHT22;6305;48.398;11.762;2023-02-15T02:44:15;-0.90;99.90
12481;DHT22;6305;48.398;11.762;2023-02-15T02:46:51;-0.90;99.90
12481;DHT22;6305;48.398;11.762;2023-02-15T02:49:30;-0.90;99.90
12481;DHT22;6305;48.398;11.762;2023-02-15T02:51:59;-0.90;99.90
12481;DHT22;6305;48.398;11.762;2023-02-15T02:54:27;-0.90;99.90
12481;DHT22;6305;48.398;11.762;2023-02-15T02:56:55;-0.90;99.90
12481;DHT22;6305;48.398;11.762;2023-02-15T02:59:26;-0.90;99.90
12481;DHT22;6305;48.398;11.762;2023-02-15T03:01:57;-0.90;99.90
12481;DHT22;6305;48.398;11.762;2023-02-15T03:04:30;-0.90;99.90
12481;DHT22;6305;48.398;11.762;2023-02-15T03:07:01;-0.80;99.90
12481;DHT22;6305;48.398;11.762;2023-02-15T03:09:31;-0.90;99.90
12481;DHT22;6305;48.398;11.762;2023-02-15T03:12:08;-0.90;99.90
12481;DHT22;6305;48.398;11.762;2023-02-15T03:14:41;-0.90;99.90
12481;DHT22;6305;48.398;11.762;2023-02-15T03:17:11;-0.80;99.90
12481;DHT22;6305;48.398;11.762;2023-02-15T03:19:40;-0.90;99.90
12481;DHT22;6305;48.398;11.762;2023-02-15T03:22:11;-1.00;99.90
12481;DHT22;6305;48.398;11.762;2023-02-15T03:24:44;-1.00;99.90
12481;DHT22;6305;48.398;11.762;2023-02-15T03:27:17;-1.10;99.90
12481;DHT22;6305;48.398;11.762;2023-02-15T03:29:47;-1.10;99.90
12481;DHT22;6305;48.398;11.762;2023-02-15T03:32:17;-1.10;99.90
12481;DHT22;6305;48.398;11.762;2023-02-15T03:34:46;-1.10;99.90
12481;DHT22;6305;48.398;11.762;2023-02-15T03:37:17;-1.10;99.90
12481;DHT22;6305;48.398;11.762;2023-02-15T03:39:51;-1.20;99.90
12481;DHT22;6305;48.398;11.762;2023-02-15T03:42:24;-1.20;99.90
12481;DHT22;6305;48.398;11.762;2023-02-15T03:44:54;-1.20;99.90
12481;DHT22;6305;48.398;11.762;2023-02-15T03:47:26;-1.20;99.90
12481;DHT22;6305;48.398;11.762;2023-02-15T03:49:57;-1.20;99.90
12481;DHT22;6305;48.398;11.762;2023-02-15T03:52:28;-1.30;99.90
12481;DHT22;6305;48.398;11.762;2023-02-15T03:54:55;-1.30;99.90
12481;DHT22;6305;48.398;11.762;2023-02-15T03:57:24;-1.30;99.90
12481;DHT22;6305;48.398;11.762;2023-02-15T04:00:13;-1.30;99.90
12481;DHT22;6305;48.398;11.762;2023-02-15T04:03:19;-1.30;99.90
12481;DHT22;6305;48.398;11.762;2023-02-15T04:05:50;-1.40;99.90
12481;DHT22;6305;48.398;11.762;2023-02-15T04:08:17;-1.40;99.90
12481;DHT22;6305;48.398;11.762;2023-02-15T04:10:44;-1.40;99.90
12481;DHT22;6305;48.398;11.762;2023-02-15T04:13:22;-1.40;99.90
12481;DHT22;6305;48.398;11.762;2023-02-15T04:15:49;-1.50;99.90
12481;DHT22;6305;48.398;11.762;2023-02-15T04:18:31;-1.50;99.90
12481;DHT22;6305;48.398;11.762;2023-02-15T04:21:17;-1.50;99.90
12481;DHT22;6305;48.398;11.762;2023-02-15T04:24:02;-1.40;99.90
12481;DHT22;6305;48.398;11.762;2023-02-15T04:26:46;-1.40;99.90
12481;DHT22;6305;48.398;11.762;2023-02-15T04:29:14;-1.40;99.90
12481;DHT22;6305;48.398;11.762;2023-02-15T04:31:41;-1.30;99.90
12481;DHT22;6305;48.398;11.762;2023-02-15T04:34:09;-1.30;99.90
12481;DHT22;6305;48.398;11.762;2023-02-15T04:36:38;-1.30;99.90
12481;DHT22;6305;48.398;11.762;2023-02-15T04:39:06;-1.30;99.90
12481;DHT22;6305;48.398;11.762;2023-02-15T04:41:33;-1.30;99.90
12481;DHT22;6305;48.398;11.762;2023-02-15T04:44:01;-1.30;99.90
12481;DHT22;6305;48.398;11.762;2023-02-15T04:46:28;-1.30;99.90
12481;DHT22;6305;48.398;11.762;2023-02-15T04:48:56;-1.40;99.90
12481;DHT22;6305;48.398;11.762;2023-02-15T04:51:23;-1.40;99.90
12481;DHT22;6305;48.398;11.762;2023-02-15T04:53:51;-1.30;99.90
12481;DHT22;6305;48.398;11.762;2023-02-15T04:56:19;-1.30;99.90
12481;DHT22;6305;48.398;11.762;2023-02-15T04:58:46;-1.30;99.90
12481;DHT22;6305;48.398;11.762;2023-02-15T05:01:13;-1.30;99.90
12481;DHT22;6305;48.398;11.762;2023-02-15T05:03:40;-1.30;99.90
12481;DHT22;6305;48.398;11.762;2023-02-15T05:06:07;-1.30;99.90
12481;DHT22;6305;48.398;11.762;2023-02-15T05:08:35;-1.30;99.90
12481;DHT22;6305;48.398;11.762;2023-02-15T05:11:03;-1.40;99.90
12481;DHT22;6305;48.398;11.762;2023-02-15T05:13:30;-1.40;99.90
12481;DHT22;6305;48.398;11.762;2023-02-15T05:15:57;-1.40;99.90
12481;DHT22;6305;48.398;11.762;2023-02-15T05:18:24;-1.40;99.90
12481;DHT22;6305;48.398;11.762;2023-02-15T05:20:51;-1.40;99.90
12481;DHT22;6305;48.398;11.762;2023-02-15T05:23:18;-1.40;99.90
12481;DHT22;6305;48.398;11.762;2023-02-15T05:25:47;-1.40;99.90
12481;DHT22;6305;48.398;11.762;2023-02-15T05:28:34;-1.40;99.90
12481;DHT22;6305;48.398;11.762;2023-02-15T05:31:04;-1.50;99.90
12481;DHT22;6305;48.398;11.762;2023-02-15T05:33:31;-1.60;99.90
12481;DHT22;6305;48.398;11.762;2023-02-15T05:35:59;-1.60;99.90
12481;DHT22;6305;48.398;11.762;2023-02-15T05:38:25;-1.60;99.90
12481;DHT22;6305;48.398;11.762;2023-02-15T05:40:52;-1.70;99.90
12481;DHT22;6305;48.398;11.762;2023-02-15T05:43:19;-1.70;99.90
12481;DHT22;6305;48.398;11.762;2023-02-15T05:45:49;-1.60;99.90
12481;DHT22;6305;48.398;11.762;2023-02-15T05:48:17;-1.60;99.90
12481;DHT22;6305;48.398;11.762;2023-02-15T05:50:45;-1.50;99.90
12481;DHT22;6305;48.398;11.762;2023-02-15T05:53:12;-1.50;99.90
12481;DHT22;6305;48.398;11.762;2023-02-15T05:55:39;-1.50;99.90
12481;DHT22;6305;48.398;11.762;2023-02-15T05:58:06;-1.40;99.90
12481;DHT22;6305;48.398;11.762;2023-02-15T06:00:34;-1.40;99.90
12481;DHT22;6305;48.398;11.762;2023-02-15T06:03:02;-1.50;99.90
12481;DHT22;6305;48.398;11.762;2023-02-15T06:05:29;-1.40;99.90
12481;DHT22;6305;48.398;11.762;2023-02-15T06:07:56;-1.50;99.90
12481;DHT22;6305;48.398;11.762;2023-02-15T06:10:23;-1.50;99.90
12481;DHT22;6305;48.398;11.762;2023-02-15T06:12:50;-1.60;99.90
12481;DHT22;6305;48.398;11.762;2023-02-15T06:15:17;-1.70;99.90
12481;DHT22;6305;48.398;11.762;2023-02-15T06:17:44;-1.70;99.90
12481;DHT22;6305;48.398;11.762;2023-02-15T06:20:13;-1.70;99.90
12481;DHT22;6305;48.398;11.762;2023-02-15T06:22:40;-1.80;99.90
12481;DHT22;6305;48.398;11.762;2023-02-15T06:25:07;-1.80;99.90
12481;DHT22;6305;48.398;11.762;2023-02-15T06:27:35;-1.80;99.90
12481;DHT22;6305;48.398;11.762;2023-02-15T06:30:03;-1.70;99.90
12481;DHT22;6305;48.398;11.762;2023-02-15T06:32:31;-1.60;99.90
12481;DHT22;6305;48.398;11.762;2023-02-15T06:34:58;-1.60;99.90
12481;DHT22;6305;48.398;11.762;2023-02-15T06:37:26;-1.60;99.90
12481;DHT22;6305;48.398;11.762;2023-02-15T06:39:53;-1.60;99.90
12481;DHT22;6305;48.398;11.762;2023-02-15T06:42:21;-1.60;99.90
12481;DHT22;6305;48.398;11.762;2023-02-15T06:44:48;-1.60;99.90
12481;DHT22;6305;48.398;11.762;2023-02-15T06:47:15;-1.60;99.90
12481;DHT22;6305;48.398;11.762;2023-02-15T06:49:42;-1.60;99.90
12481;DHT22;6305;48.398;11.762;2023-02-15T06:52:08;-1.60;99.90
12481;DHT22;6305;48.398;11.762;2023-02-15T06:54:37;-1.50;99.90
12481;DHT22;6305;48.398;11.762;2023-02-15T06:57:03;-1.50;99.90
12481;DHT22;6305;48.398;11.762;2023-02-15T06:59:30;-1.40;99.90
12481;DHT22;6305;48.398;11.762;2023-02-15T07:01:57;-1.40;99.90
12481;DHT22;6305;48.398;11.762;2023-02-15T07:04:24;-1.40;99.90
12481;DHT22;6305;48.398;11.762;2023-02-15T07:06:51;-1.30;99.90
12481;DHT22;6305;48.398;11.762;2023-02-15T07:09:18;-1.30;99.90
12481;DHT22;6305;48.398;11.762;2023-02-15T07:11:46;-1.30;99.90
12481;DHT22;6305;48.398;11.762;2023-02-15T07:14:30;-1.30;99.90
12481;DHT22;6305;48.398;11.762;2023-02-15T07:16:57;-1.30;99.90
12481;DHT22;6305;48.398;11.762;2023-02-15T07:19:24;-1.20;99.90
12481;DHT22;6305;48.398;11.762;2023-02-15T07:21:51;-1.20;99.90
12481;DHT22;6305;48.398;11.762;2023-02-15T07:24:18;-1.10;99.90
12481;DHT22;6305;48.398;11.762;2023-02-15T07:26:46;-1.10;99.90
12481;DHT22;6305;48.398;11.762;2023-02-15T07:29:13;-1.00;99.90
12481;DHT22;6305;48.398;11.762;2023-02-15T07:31:41;-1.00;99.90
12481;DHT22;6305;48.398;11.762;2023-02-15T07:34:08;-1.10;99.90
12481;DHT22;6305;48.398;11.762;2023-02-15T07:36:35;-1.10;99.90
12481;DHT22;6305;48.398;11.762;2023-02-15T07:39:02;-1.20;99.90
12481;DHT22;6305;48.398;11.762;2023-02-15T07:41:29;-1.20;99.90
12481;DHT22;6305;48.398;11.762;2023-02-15T07:43:58;-1.10;99.90
12481;DHT22;6305;48.398;11.762;2023-02-15T07:46:24;-1.10;99.90
12481;DHT22;6305;48.398;11.762;2023-02-15T07:48:51;-1.10;99.90
12481;DHT22;6305;48.398;11.762;2023-02-15T07:51:18;-1.10;99.90
12481;DHT22;6305;48.398;11.762;2023-02-15T07:53:45;-1.10;99.90
12481;DHT22;6305;48.398;11.762;2023-02-15T07:56:14;-1.10;99.90
12481;DHT22;6305;48.398;11.762;2023-02-15T07:58:41;-1.10;99.90
12481;DHT22;6305;48.398;11.762;2023-02-15T08:01:19;-1.00;99.90
12481;DHT22;6305;48.398;11.762;2023-02-15T08:03:47;-0.90;99.90
12481;DHT22;6305;48.398;11.762;2023-02-15T08:06:14;-0.80;99.90
12481;DHT22;6305;48.398;11.762;2023-02-15T08:08:41;-0.80;99.90
12481;DHT22;6305;48.398;11.762;2023-02-15T08:11:15;-0.80;99.90
12481;DHT22;6305;48.398;11.762;2023-02-15T08:14:09;-0.70;99.90
12481;DHT22;6305;48.398;11.762;2023-02-15T08:16:40;-0.70;99.90
12481;DHT22;6305;48.398;11.762;2023-02-15T08:19:09;-0.70;99.90
12481;DHT22;6305;48.398;11.762;2023-02-15T08:21:38;-0.60;99.90
12481;DHT22;6305;48.398;11.762;2023-02-15T08:24:06;-0.40;99.90
12481;DHT22;6305;48.398;11.762;2023-02-15T08:26:34;-0.30;99.90
12481;DHT22;6305;48.398;11.762;2023-02-15T08:29:02;-0.20;99.90
12481;DHT22;6305;48.398;11.762;2023-02-15T08:31:29;-0.20;99.90
12481;DHT22;6305;48.398;11.762;2023-02-15T08:33:57;0.00;99.90
12481;DHT22;6305;48.398;11.762;2023-02-15T08:36:26;0.20;99.90
12481;DHT22;6305;48.398;11.762;2023-02-15T08:38:54;0.30;99.90
12481;DHT22;6305;48.398;11.762;2023-02-15T08:41:23;0.40;99.90
12481;DHT22;6305;48.398;11.762;2023-02-15T08:43:52;0.50;99.90
12481;DHT22;6305;48.398;11.762;2023-02-15T08:46:20;0.60;99.90
12481;DHT22;6305;48.398;11.762;2023-02-15T08:48:47;0.60;99.90
12481;DHT22;6305;48.398;11.762;2023-02-15T08:51:18;0.60;99.90
12481;DHT22;6305;48.398;11.762;2023-02-15T08:53:47;0.70;99.90
12481;DHT22;6305;48.398;11.762;2023-02-15T08:56:15;0.70;99.90
12481;DHT22;6305;48.398;11.762;2023-02-15T08:58:43;0.80;99.90
12481;DHT22;6305;48.398;11.762;2023-02-15T09:01:10;0.80;99.90
12481;DHT22;6305;48.398;11.762;2023-02-15T09:03:38;0.80;99.90
12481;DHT22;6305;48.398;11.762;2023-02-15T09:06:05;0.70;99.90
12481;DHT22;6305;48.398;11.762;2023-02-15T09:08:34;0.60;99.90
12481;DHT22;6305;48.398;11.762;2023-02-15T09:11:06;0.70;99.90
12481;DHT22;6305;48.398;11.762;2023-02-15T09:13:33;0.80;99.90
12481;DHT22;6305;48.398;11.762;2023-02-15T09:16:01;0.80;99.90
12481;DHT22;6305;48.398;11.762;2023-02-15T09:18:29;0.80;99.90
12481;DHT22;6305;48.398;11.762;2023-02-15T09:21:03;0.80;99.90
12481;DHT22;6305;48.398;11.762;2023-02-15T09:23:29;0.70;99.90
12481;DHT22;6305;48.398;11.762;2023-02-15T09:26:02;0.60;99.90
12481;DHT22;6305;48.398;11.762;2023-02-15T09:28:29;0.50;99.90
12481;DHT22;6305;48.398;11.762;2023-02-15T09:31:07;0.60;99.90
12481;DHT22;6305;48.398;11.762;2023-02-15T09:33:35;0.60;99.90
12481;DHT22;6305;48.398;11.762;2023-02-15T09:36:03;0.60;99.90
12481;DHT22;6305;48.398;11.762;2023-02-15T09:38:31;0.60;99.90
12481;DHT22;6305;48.398;11.762;2023-02-15T09:41:11;0.70;99.90
12481;DHT22;6305;48.398;11.762;2023-02-15T09:43:48;0.70;99.90
12481;DHT22;6305;48.398;11.762;2023-02-15T09:46:32;0.80;99.90
12481;DHT22;6305;48.398;11.762;2023-02-15T09:49:05;0.80;99.90
12481;DHT22;6305;48.398;11.762;2023-02-15T09:51:57;0.90;99.90
12481;DHT22;6305;48.398;11.762;2023-02-15T09:54:37;1.00;99.90
12481;DHT22;6305;48.398;11.762;2023-02-15T09:57:14;1.30;99.90
12481;DHT22;6305;48.398;11.762;2023-02-15T09:59:52;1.40;99.90
12481;DHT22;6305;48.398;11.762;2023-02-15T10:02:31;1.40;99.90
12481;DHT22;6305;48.398;11.762;2023-02-15T10:05:11;1.50;99.90
12481;DHT22;6305;48.398;11.762;2023-02-15T10:07:58;1.80;99.90
12481;DHT22;6305;48.398;11.762;2023-02-15T10:10:34;1.90;99.90
12481;DHT22;6305;48.398;11.762;2023-02-15T10:13:19;2.00;99.90
12481;DHT22;6305;48.398;11.762;2023-02-15T10:16:06;2.20;99.90
12481;DHT22;6305;48.398;11.762;2023-02-15T10:18:45;2.00;99.90
12481;DHT22;6305;48.398;11.762;2023-02-15T10:21:22;1.90;99.90
12481;DHT22;6305;48.398;11.762;2023-02-15T10:24:02;2.00;99.90
12481;DHT22;6305;48.398;11.762;2023-02-15T10:26:38;2.00;99.90
12481;DHT22;6305;48.398;11.762;2023-02-15T10:29:16;1.90;99.90
12481;DHT22;6305;48.398;11.762;2023-02-15T10:31:48;1.90;99.90
12481;DHT22;6305;48.398;11.762;2023-02-15T10:34:17;2.00;99.90
12481;DHT22;6305;48.398;11.762;2023-02-15T10:37:01;2.00;99.90
12481;DHT22;6305;48.398;11.762;2023-02-15T10:39:41;2.10;99.90
12481;DHT22;6305;48.398;11.762;2023-02-15T10:42:20;2.40;99.90
12481;DHT22;6305;48.398;11.762;2023-02-15T10:45:04;2.50;99.90
12481;DHT22;6305;48.398;11.762;2023-02-15T10:47:48;2.60;99.90
12481;DHT22;6305;48.398;11.762;2023-02-15T10:50:32;2.60;99.90
12481;DHT22;6305;48.398;11.762;2023-02-15T10:53:13;2.70;99.90
12481;DHT22;6305;48.398;11.762;2023-02-15T10:55:49;2.90;99.90
12481;DHT22;6305;48.398;11.762;2023-02-15T10:58:27;2.90;99.90
12481;DHT22;6305;48.398;11.762;2023-02-15T11:01:04;2.90;99.90
12481;DHT22;6305;48.398;11.762;2023-02-15T11:03:46;3.00;99.90
12481;DHT22;6305;48.398;11.762;2023-02-15T11:06:18;3.10;99.90
12481;DHT22;6305;48.398;11.762;2023-02-15T11:08:48;3.10;99.90
12481;DHT22;6305;48.398;11.762;2023-02-15T11:11:22;3.30;99.90
12481;DHT22;6305;48.398;11.762;2023-02-15T11:13:52;3.50;99.90
12481;DHT22;6305;48.398;11.762;2023-02-15T11:16:25;3.70;99.90
12481;DHT22;6305;48.398;11.762;2023-02-15T11:18:55;3.80;99.90
12481;DHT22;6305;48.398;11.762;2023-02-15T11:21:26;4.00;99.90
12481;DHT22;6305;48.398;11.762;2023-02-15T11:23:54;3.90;99.90
12481;DHT22;6305;48.398;11.762;2023-02-15T11:26:28;3.60;99.90
12481;DHT22;6305;48.398;11.762;2023-02-15T11:28:59;3.40;99.90
12481;DHT22;6305;48.398;11.762;2023-02-15T11:31:37;3.30;99.90
12481;DHT22;6305;48.398;11.762;2023-02-15T11:34:13;3.30;99.90
12481;DHT22;6305;48.398;11.762;2023-02-15T11:36:43;3.20;99.90
12481;DHT22;6305;48.398;11.762;2023-02-15T11:39:14;3.20;99.90
12481;DHT22;6305;48.398;11.762;2023-02-15T11:41:46;3.30;99.90
12481;DHT22;6305;48.398;11.762;2023-02-15T11:44:19;3.40;99.90
12481;DHT22;6305;48.398;11.762;2023-02-15T11:46:49;3.50;99.90
12481;DHT22;6305;48.398;11.762;2023-02-15T11:49:22;3.50;99.90
12481;DHT22;6305;48.398;11.762;2023-02-15T11:51:50;3.60;99.90
12481;DHT22;6305;48.398;11.762;2023-02-15T11:54:21;3.70;99.90
12481;DHT22;6305;48.398;11.762;2023-02-15T11:56:50;3.80;99.90
12481;DHT22;6305;48.398;11.762;2023-02-15T11:59:24;4.00;99.90
12481;DHT22;6305;48.398;11.762;2023-02-15T12:01:52;4.20;99.90
12481;DHT22;6305;48.398;11.762;2023-02-15T12:04:24;4.20;99.90
12481;DHT22;6305;48.398;11.762;2023-02-15T12:06:55;4.40;99.90
12481;DHT22;6305;48.398;11.762;2023-02-15T12:09:30;4.70;99.90
12481;DHT22;6305;48.398;11.762;2023-02-15T12:12:21;4.90;99.90
12481;DHT22;6305;48.398;11.762;2023-02-15T12:14:50;4.80;99.90
12481;DHT22;6305;48.398;11.762;2023-02-15T12:17:21;4.70;99.90
12481;DHT22;6305;48.398;11.762;2023-02-15T12:19:50;4.70;99.90
12481;DHT22;6305;48.398;11.762;2023-02-15T12:22:22;4.80;99.90
12481;DHT22;6305;48.398;11.762;2023-02-15T12:24:52;4.80;99.90
12481;DHT22;6305;48.398;11.762;2023-02-15T12:27:22;5.10;99.90
12481;DHT22;6305;48.398;11.762;2023-02-15T12:29:52;5.30;99.90
12481;DHT22;6305;48.398;11.762;2023-02-15T12:32:24;5.40;99.90
12481;DHT22;6305;48.398;11.762;2023-02-15T12:34:52;5.50;99.90
12481;DHT22;6305;48.398;11.762;2023-02-15T12:37:25;5.50;99.90
12481;DHT22;6305;48.398;11.762;2023-02-15T12:39:55;5.40;99.90
12481;DHT22;6305;48.398;11.762;2023-02-15T12:42:23;5.20;99.90
12481;DHT22;6305;48.398;11.762;2023-02-15T12:44:59;5.10;99.90
12481;DHT22;6305;48.398;11.762;2023-02-15T12:47:28;4.80;99.90
12481;DHT22;6305;48.398;11.762;2023-02-15T12:50:14;4.70;99.90
12481;DHT22;6305;48.398;11.762;2023-02-15T12:52:46;4.70;99.90
12481;DHT22;6305;48.398;11.762;2023-02-15T12:55:23;4.70;99.90
12481;DHT22;6305;48.398;11.762;2023-02-15T12:58:06;4.90;99.90
12481;DHT22;6305;48.398;11.762;2023-02-15T13:00:33;5.10;99.90
12481;DHT22;6305;48.398;11.762;2023-02-15T13:03:01;5.30;99.90
12481;DHT22;6305;48.398;11.762;2023-02-15T13:05:32;5.30;99.90
12481;DHT22;6305;48.398;11.762;2023-02-15T13:08:03;5.30;99.90
12481;DHT22;6305;48.398;11.762;2023-02-15T13:10:35;5.40;99.90
12481;DHT22;6305;48.398;11.762;2023-02-15T13:13:09;5.50;99.90
12481;DHT22;6305;48.398;11.762;2023-02-15T13:15:39;5.50;99.90
12481;DHT22;6305;48.398;11.762;2023-02-15T13:18:14;5.30;99.90
12481;DHT22;6305;48.398;11.762;2023-02-15T13:20:42;5.40;99.90
12481;DHT22;6305;48.398;11.762;2023-02-15T13:23:20;5.30;99.90
12481;DHT22;6305;48.398;11.762;2023-02-15T13:25:48;5.20;99.90
12481;DHT22;6305;48.398;11.762;2023-02-15T13:28:18;5.00;99.90
12481;DHT22;6305;48.398;11.762;2023-02-15T13:30:47;4.90;99.90
12481;DHT22;6305;48.398;11.762;2023-02-15T13:33:22;4.90;99.90
12481;DHT22;6305;48.398;11.762;2023-02-15T13:35:58;4.80;99.90
12481;DHT22;6305;48.398;11.762;2023-02-15T13:38:49;4.70;99.90
12481;DHT22;6305;48.398;11.762;2023-02-15T13:41:24;4.70;99.90
12481;DHT22;6305;48.398;11.762;2023-02-15T13:43:59;4.70;99.90
12481;DHT22;6305;48.398;11.762;2023-02-15T13:46:46;4.80;99.90
12481;DHT22;6305;48.398;11.762;2023-02-15T13:49:31;4.90;99.90
12481;DHT22;6305;48.398;11.762;2023-02-15T13:52:08;4.90;99.90
12481;DHT22;6305;48.398;11.762;2023-02-15T13:55:06;4.90;99.90
12481;DHT22;6305;48.398;11.762;2023-02-15T13:58:03;4.80;99.90
12481;DHT22;6305;48.398;11.762;2023-02-15T14:00:40;4.70;99.90
12481;DHT22;6305;48.398;11.762;2023-02-15T14:03:33;4.60;99.90
12481;DHT22;6305;48.398;11.762;2023-02-15T14:06:18;4.50;99.90
12481;DHT22;6305;48.398;11.762;2023-02-15T14:08:58;4.50;99.90
12481;DHT22;6305;48.398;11.762;2023-02-15T14:11:32;4.50;99.90
12481;DHT22;6305;48.398;11.762;2023-02-15T14:14:15;4.60;99.90
12481;DHT22;6305;48.398;11.762;2023-02-15T14:16:53;4.70;99.90
12481;DHT22;6305;48.398;11.762;2023-02-15T14:19:27;4.70;99.90
12481;DHT22;6305;48.398;11.762;2023-02-15T14:22:00;4.80;99.90
12481;DHT22;6305;48.398;11.762;2023-02-15T14:24:35;4.90;99.90
12481;DHT22;6305;48.398;11.762;2023-02-15T14:27:10;4.90;99.90
12481;DHT22;6305;48.398;11.762;2023-02-15T14:29:47;4.80;99.90
12481;DHT22;6305;48.398;11.762;2023-02-15T14:32:21;4.60;99.90
12481;DHT22;6305;48.398;11.762;2023-02-15T14:34:52;4.50;99.90
12481;DHT22;6305;48.398;11.762;2023-02-15T14:37:27;4.60;99.90
12481;DHT22;6305;48.398;11.762;2023-02-15T14:40:02;4.50;99.90
12481;DHT22;6305;48.398;11.762;2023-02-15T14:42:54;4.30;99.90
12481;DHT22;6305;48.398;11.762;2023-02-15T14:45:28;4.30;99.90
12481;DHT22;6305;48.398;11.762;2023-02-15T14:48:01;4.20;99.90
12481;DHT22;6305;48.398;11.762;2023-02-15T14:50:44;4.20;99.90
12481;DHT22;6305;48.398;11.762;2023-02-15T14:53:22;4.20;99.90
12481;DHT22;6305;48.398;11.762;2023-02-15T14:56:06;4.20;99.90
12481;DHT22;6305;48.398;11.762;2023-02-15T14:58:33;4.10;99.90
12481;DHT22;6305;48.398;11.762;2023-02-15T15:01:04;4.00;99.90
12481;DHT22;6305;48.398;11.762;2023-02-15T15:03:33;4.00;99.90
12481;DHT22;6305;48.398;11.762;2023-02-15T15:06:03;3.80;99.90
12481;DHT22;6305;48.398;11.762;2023-02-15T15:08:36;3.70;99.90
12481;DHT22;6305;48.398;11.762;2023-02-15T15:11:39;3.60;99.90
12481;DHT22;6305;48.398;11.762;2023-02-15T15:14:08;3.60;99.90
12481;DHT22;6305;48.398;11.762;2023-02-15T15:16:51;3.60;99.90
12481;DHT22;6305;48.398;11.762;2023-02-15T15:22:34;3.40;99.90
12481;DHT22;6305;48.398;11.762;2023-02-15T15:25:04;3.30;99.90
12481;DHT22;6305;48.398;11.762;2023-02-15T15:27:51;3.30;99.90
12481;DHT22;6305;48.398;11.762;2023-02-15T15:42:51;2.40;99.90
12481;DHT22;6305;48.398;11.762;2023-02-15T15:45:41;2.30;99.90
12481;DHT22;6305;48.398;11.762;2023-02-15T15:48:37;2.20;99.90
12481;DHT22;6305;48.398;11.762;2023-02-15T15:51:10;2.00;99.90
12481;DHT22;6305;48.398;11.762;2023-02-15T15:53:41;1.90;99.90
12481;DHT22;6305;48.398;11.762;2023-02-15T15:56:14;1.80;99.90
12481;DHT22;6305;48.398;11.762;2023-02-15T15:58:48;1.60;99.90
12481;DHT22;6305;48.398;11.762;2023-02-15T16:01:16;1.60;99.90
12481;DHT22;6305;48.398;11.762;2023-02-15T16:03:51;1.60;99.90
12481;DHT22;6305;48.398;11.762;2023-02-15T16:06:36;1.50;99.90
12481;DHT22;6305;48.398;11.762;2023-02-15T16:09:11;1.50;99.90
12481;DHT22;6305;48.398;11.762;2023-02-15T16:11:39;1.40;99.90
12481;DHT22;6305;48.398;11.762;2023-02-15T16:14:13;1.50;99.90
12481;DHT22;6305;48.398;11.762;2023-02-15T16:16:41;1.40;99.90
12481;DHT22;6305;48.398;11.762;2023-02-15T16:19:18;1.40;99.90
12481;DHT22;6305;48.398;11.762;2023-02-15T16:21:47;1.30;99.90
12481;DHT22;6305;48.398;11.762;2023-02-15T16:24:26;1.20;99.90
12481;DHT22;6305;48.398;11.762;2023-02-15T16:27:10;1.20;99.90
12481;DHT22;6305;48.398;11.762;2023-02-15T16:29:42;1.10;99.90